sensor_id;sensor_type;location;lat;lon;timestamp;temperature;humidity
36450;DHT22;22475;51.390;7.180;2022-12-17T00:00:04;6.70;86.10
36450;DHT22;22475;51.390;7.180;2022-12-17T00:02:49;6.80;86.20
36450;DHT22;22475;51.390;7.180;2022-12-17T00:05:33;6.80;86.30
36450;DHT22;22475;51.390;7.180;2022-12-17T00:08:17;6.80;86.30
36450;DHT22;22475;51.390;7.180;2022-12-17T00:11:02;6.80;86.30
36450;DHT22;22475;51.390;7.180;2022-12-17T00:13:46;6.80;86.30
36450;DHT22;22475;51.390;7.180;2022-12-17T00:16:30;6.80;86.30
36450;DHT22;22475;51.390;7.180;2022-12-17T00:19:15;6.80;86.30
36450;DHT22;22475;51.390;7.180;2022-12-17T00:21:59;6.80;86.30
36450;DHT22;22475;51.390;7.180;2022-12-17T00:24:57;6.80;86.30
36450;DHT22;22475;51.390;7.180;2022-12-17T00:27:44;6.80;86.40
36450;DHT22;22475;51.390;7.180;2022-12-17T00:30:28;6.80;86.30
36450;DHT22;22475;51.390;7.180;2022-12-17T00:33:13;6.80;86.40
36450;DHT22;22475;51.390;7.180;2022-12-17T00:35:57;6.80;86.30
36450;DHT22;22475;51.390;7.180;2022-12-17T00:38:41;6.80;86.30
36450;DHT22;22475;51.390;7.180;2022-12-17T00:41:25;6.80;86.30
36450;DHT22;22475;51.390;7.180;2022-12-17T00:44:11;6.80;86.30
36450;DHT22;22475;51.390;7.180;2022-12-17T00:46:55;6.80;86.30
36450;DHT22;22475;51.390;7.180;2022-12-17T00:49:39;6.90;86.40
36450;DHT22;22475;51.390;7.180;2022-12-17T00:52:23;6.80;86.30
36450;DHT22;22475;51.390;7.180;2022-12-17T00:55:16;6.90;86.40
36450;DHT22;22475;51.390;7.180;2022-12-17T00:58:00;6.90;86.30
36450;DHT22;22475;51.390;7.180;2022-12-17T01:00:45;6.90;86.30
36450;DHT22;22475;51.390;7.180;2022-12-17T01:03:29;6.90;86.30
36450;DHT22;22475;51.390;7.180;2022-12-17T01:06:14;6.90;86.30
36450;DHT22;22475;51.390;7.180;2022-12-17T01:09:12;6.90;86.30
36450;DHT22;22475;51.390;7.180;2022-12-17T01:11:56;6.90;86.30
36450;DHT22;22475;51.390;7.180;2022-12-17T01:14:41;6.90;86.20
36450;DHT22;22475;51.390;7.180;2022-12-17T01:17:26;6.90;86.20
36450;DHT22;22475;51.390;7.180;2022-12-17T01:20:11;6.90;86.20
36450;DHT22;22475;51.390;7.180;2022-12-17T01:22:56;6.90;86.20
36450;DHT22;22475;51.390;7.180;2022-12-17T01:25:40;6.90;86.20
36450;DHT22;22475;51.390;7.180;2022-12-17T01:28:25;6.90;86.20
36450;DHT22;22475;51.390;7.180;2022-12-17T01:31:10;6.90;86.20
36450;DHT22;22475;51.390;7.180;2022-12-17T01:33:55;6.90;86.20
36450;DHT22;22475;51.390;7.180;2022-12-17T01:36:39;6.90;86.20
36450;DHT22;22475;51.390;7.180;2022-12-17T01:39:23;6.90;86.20
36450;DHT22;22475;51.390;7.180;2022-12-17T01:42:10;6.90;86.20
36450;DHT22;22475;51.390;7.180;2022-12-17T01:44:55;6.90;86.10
36450;DHT22;22475;51.390;7.180;2022-12-17T01:47:43;6.90;86.20
36450;DHT22;22475;51.390;7.180;2022-12-17T01:50:34;6.90;86.20
36450;DHT22;22475;51.390;7.180;2022-12-17T01:53:23;6.90;86.20
36450;DHT22;22475;51.390;7.180;2022-12-17T01:56:08;6.90;86.20
36450;DHT22;22475;51.390;7.180;2022-12-17T01:58:53;6.90;86.20
36450;DHT22;22475;51.390;7.180;2022-12-17T02:01:38;6.90;86.20
36450;DHT22;22475;51.390;7.180;2022-12-17T02:04:23;6.90;86.20
36450;DHT22;22475;51.390;7.180;2022-12-17T02:07:25;6.90;86.10
36450;DHT22;22475;51.390;7.180;2022-12-17T02:10:19;6.90;86.10
36450;DHT22;22475;51.390;7.180;2022-12-17T02:13:11;6.90;86.10
36450;DHT22;22475;51.390;7.180;2022-12-17T02:16:00;6.90;86.10
36450;DHT22;22475;51.390;7.180;2022-12-17T02:18:49;6.90;86.10
36450;DHT22;22475;51.390;7.180;2022-12-17T02:21:36;6.90;86.10
36450;DHT22;22475;51.390;7.180;2022-12-17T02:24:29;6.90;86.10
36450;DHT22;22475;51.390;7.180;2022-12-17T02:27:17;6.90;86.10
36450;DHT22;22475;51.390;7.180;2022-12-17T02:30:04;6.90;86.00
36450;DHT22;22475;51.390;7.180;2022-12-17T02:32:50;6.90;86.00
36450;DHT22;22475;51.390;7.180;2022-12-17T02:35:40;6.90;86.10
36450;DHT22;22475;51.390;7.180;2022-12-17T02:38:28;6.90;86.10
36450;DHT22;22475;51.390;7.180;2022-12-17T02:41:15;6.90;86.10
36450;DHT22;22475;51.390;7.180;2022-12-17T02:44:05;6.90;86.10
36450;DHT22;22475;51.390;7.180;2022-12-17T02:46:51;6.80;86.00
36450;DHT22;22475;51.390;7.180;2022-12-17T02:49:37;6.80;86.00
36450;DHT22;22475;51.390;7.180;2022-12-17T02:52:21;6.90;86.10
36450;DHT22;22475;51.390;7.180;2022-12-17T02:55:07;6.90;86.10
36450;DHT22;22475;51.390;7.180;2022-12-17T02:57:51;6.90;86.10
36450;DHT22;22475;51.390;7.180;2022-12-17T03:00:37;6.90;86.10
36450;DHT22;22475;51.390;7.180;2022-12-17T03:03:20;6.90;86.10
36450;DHT22;22475;51.390;7.180;2022-12-17T03:06:05;6.90;86.10
36450;DHT22;22475;51.390;7.180;2022-12-17T03:08:49;6.90;86.10
36450;DHT22;22475;51.390;7.180;2022-12-17T03:11:33;6.90;86.10
36450;DHT22;22475;51.390;7.180;2022-12-17T03:14:17;6.90;86.10
36450;DHT22;22475;51.390;7.180;2022-12-17T03:17:03;6.90;86.10
36450;DHT22;22475;51.390;7.180;2022-12-17T03:20:05;6.90;86.10
36450;DHT22;22475;51.390;7.180;2022-12-17T03:22:49;6.90;86.00
36450;DHT22;22475;51.390;7.180;2022-12-17T03:25:34;6.90;86.10
36450;DHT22;22475;51.390;7.180;2022-12-17T03:28:18;6.90;86.00
36450;DHT22;22475;51.390;7.180;2022-12-17T03:31:17;6.90;86.00
36450;DHT22;22475;51.390;7.180;2022-12-17T03:34:14;6.90;86.00
36450;DHT22;22475;51.390;7.180;2022-12-17T03:36:58;6.90;86.00
36450;DHT22;22475;51.390;7.180;2022-12-17T03:39:42;6.90;86.00
36450;DHT22;22475;51.390;7.180;2022-12-17T03:42:26;6.90;86.00
36450;DHT22;22475;51.390;7.180;2022-12-17T03:45:11;6.90;86.00
36450;DHT22;22475;51.390;7.180;2022-12-17T03:48:03;6.90;86.00
36450;DHT22;22475;51.390;7.180;2022-12-17T03:50:49;6.90;86.10
36450;DHT22;22475;51.390;7.180;2022-12-17T03:53:34;6.90;86.10
36450;DHT22;22475;51.390;7.180;2022-12-17T03:56:18;6.90;86.10
36450;DHT22;22475;51.390;7.180;2022-12-17T03:59:02;6.90;86.10
36450;DHT22;22475;51.390;7.180;2022-12-17T04:01:46;6.90;86.10
36450;DHT22;22475;51.390;7.180;2022-12-17T04:04:30;6.90;86.20
36450;DHT22;22475;51.390;7.180;2022-12-17T04:07:16;6.90;86.20
36450;DHT22;22475;51.390;7.180;2022-12-17T04:09:56;6.90;86.20
36450;DHT22;22475;51.390;7.180;2022-12-17T04:12:49;6.90;86.20
36450;DHT22;22475;51.390;7.180;2022-12-17T04:15:33;7.00;86.20
36450;DHT22;22475;51.390;7.180;2022-12-17T04:18:18;6.90;86.10
36450;DHT22;22475;51.390;7.180;2022-12-17T04:21:02;6.90;86.10
36450;DHT22;22475;51.390;7.180;2022-12-17T04:23:48;6.90;86.10
36450;DHT22;22475;51.390;7.180;2022-12-17T04:26:32;6.90;86.80
36450;DHT22;22475;51.390;7.180;2022-12-17T04:29:16;6.90;86.00
36450;DHT22;22475;51.390;7.180;2022-12-17T04:32:00;6.90;86.10
36450;DHT22;22475;51.390;7.180;2022-12-17T04:34:44;6.90;86.00
36450;DHT22;22475;51.390;7.180;2022-12-17T04:37:31;6.90;86.00
36450;DHT22;22475;51.390;7.180;2022-12-17T04:40:17;6.90;86.00
36450;DHT22;22475;51.390;7.180;2022-12-17T04:43:05;6.90;86.00
36450;DHT22;22475;51.390;7.180;2022-12-17T04:45:58;6.90;86.00
36450;DHT22;22475;51.390;7.180;2022-12-17T04:48:42;6.90;86.00
36450;DHT22;22475;51.390;7.180;2022-12-17T04:51:28;6.90;86.00
36450;DHT22;22475;51.390;7.180;2022-12-17T04:54:13;6.90;86.00
36450;DHT22;22475;51.390;7.180;2022-12-17T04:56:58;6.90;85.90
36450;DHT22;22475;51.390;7.180;2022-12-17T04:59:42;6.90;86.00
36450;DHT22;22475;51.390;7.180;2022-12-17T05:02:26;6.90;85.90
36450;DHT22;22475;51.390;7.180;2022-12-17T05:05:11;6.90;85.90
36450;DHT22;22475;51.390;7.180;2022-12-17T05:07:56;6.90;85.90
36450;DHT22;22475;51.390;7.180;2022-12-17T05:10:40;6.90;85.90
36450;DHT22;22475;51.390;7.180;2022-12-17T05:13:26;6.90;86.00
36450;DHT22;22475;51.390;7.180;2022-12-17T05:16:11;6.90;85.90
36450;DHT22;22475;51.390;7.180;2022-12-17T05:18:55;6.90;85.90
36450;DHT22;22475;51.390;7.180;2022-12-17T05:21:39;6.90;85.90
36450;DHT22;22475;51.390;7.180;2022-12-17T05:24:23;6.90;85.90
36450;DHT22;22475;51.390;7.180;2022-12-17T05:27:08;6.90;85.90
36450;DHT22;22475;51.390;7.180;2022-12-17T05:29:53;6.90;85.90
36450;DHT22;22475;51.390;7.180;2022-12-17T05:32:37;6.90;85.80
36450;DHT22;22475;51.390;7.180;2022-12-17T05:35:21;6.90;85.90
36450;DHT22;22475;51.390;7.180;2022-12-17T05:38:08;6.90;85.80
36450;DHT22;22475;51.390;7.180;2022-12-17T05:40:54;6.90;85.80
36450;DHT22;22475;51.390;7.180;2022-12-17T05:43:39;6.90;85.80
36450;DHT22;22475;51.390;7.180;2022-12-17T05:46:24;6.90;85.80
36450;DHT22;22475;51.390;7.180;2022-12-17T05:49:09;7.00;85.80
36450;DHT22;22475;51.390;7.180;2022-12-17T05:51:53;6.90;85.70
36450;DHT22;22475;51.390;7.180;2022-12-17T05:54:37;6.90;85.70
36450;DHT22;22475;51.390;7.180;2022-12-17T05:57:22;6.90;85.70
36450;DHT22;22475;51.390;7.180;2022-12-17T06:00:07;6.90;85.70
36450;DHT22;22475;51.390;7.180;2022-12-17T06:02:57;6.90;85.70
36450;DHT22;22475;51.390;7.180;2022-12-17T06:05:41;6.90;85.70
36450;DHT22;22475;51.390;7.180;2022-12-17T06:08:25;6.90;85.70
36450;DHT22;22475;51.390;7.180;2022-12-17T06:11:10;7.00;85.70
36450;DHT22;22475;51.390;7.180;2022-12-17T06:13:54;7.00;85.70
36450;DHT22;22475;51.390;7.180;2022-12-17T06:16:38;6.90;85.60
36450;DHT22;22475;51.390;7.180;2022-12-17T06:19:24;6.90;85.60
36450;DHT22;22475;51.390;7.180;2022-12-17T06:22:08;6.90;85.70
36450;DHT22;22475;51.390;7.180;2022-12-17T06:24:52;6.90;85.70
36450;DHT22;22475;51.390;7.180;2022-12-17T06:27:36;6.90;85.70
36450;DHT22;22475;51.390;7.180;2022-12-17T06:30:20;6.90;85.70
36450;DHT22;22475;51.390;7.180;2022-12-17T06:33:05;6.90;85.70
36450;DHT22;22475;51.390;7.180;2022-12-17T06:35:53;6.90;85.80
36450;DHT22;22475;51.390;7.180;2022-12-17T06:38:37;6.90;85.80
36450;DHT22;22475;51.390;7.180;2022-12-17T06:41:22;6.90;85.80
36450;DHT22;22475;51.390;7.180;2022-12-17T06:44:06;6.90;85.80
36450;DHT22;22475;51.390;7.180;2022-12-17T06:46:50;6.90;85.80
36450;DHT22;22475;51.390;7.180;2022-12-17T06:49:34;6.90;85.80
36450;DHT22;22475;51.390;7.180;2022-12-17T06:52:19;6.90;85.80
36450;DHT22;22475;51.390;7.180;2022-12-17T06:55:04;6.90;85.70
36450;DHT22;22475;51.390;7.180;2022-12-17T06:58:00;6.90;85.60
36450;DHT22;22475;51.390;7.180;2022-12-17T07:00:45;6.90;85.60
36450;DHT22;22475;51.390;7.180;2022-12-17T07:03:30;6.90;85.60
36450;DHT22;22475;51.390;7.180;2022-12-17T07:06:14;7.00;85.70
36450;DHT22;22475;51.390;7.180;2022-12-17T07:09:00;6.90;85.60
36450;DHT22;22475;51.390;7.180;2022-12-17T07:11:44;6.90;85.60
36450;DHT22;22475;51.390;7.180;2022-12-17T07:14:43;6.90;85.60
36450;DHT22;22475;51.390;7.180;2022-12-17T07:17:27;6.90;85.60
36450;DHT22;22475;51.390;7.180;2022-12-17T07:20:12;6.90;85.60
36450;DHT22;22475;51.390;7.180;2022-12-17T07:23:04;6.90;85.60
36450;DHT22;22475;51.390;7.180;2022-12-17T07:25:50;6.90;85.50
36450;DHT22;22475;51.390;7.180;2022-12-17T07:28:34;6.90;85.50
36450;DHT22;22475;51.390;7.180;2022-12-17T07:31:18;6.90;85.40
36450;DHT22;22475;51.390;7.180;2022-12-17T07:34:02;6.90;86.20
36450;DHT22;22475;51.390;7.180;2022-12-17T07:36:46;6.90;85.40
36450;DHT22;22475;51.390;7.180;2022-12-17T07:39:30;6.90;85.40
36450;DHT22;22475;51.390;7.180;2022-12-17T07:42:16;6.90;85.40
36450;DHT22;22475;51.390;7.180;2022-12-17T07:45:00;6.90;85.40
36450;DHT22;22475;51.390;7.180;2022-12-17T07:47:50;6.90;85.40
36450;DHT22;22475;51.390;7.180;2022-12-17T07:50:35;6.90;85.40
36450;DHT22;22475;51.390;7.180;2022-12-17T07:53:19;6.90;85.40
36450;DHT22;22475;51.390;7.180;2022-12-17T07:56:03;6.90;85.40
36450;DHT22;22475;51.390;7.180;2022-12-17T07:58:49;6.90;85.30
36450;DHT22;22475;51.390;7.180;2022-12-17T08:01:33;6.90;85.40
36450;DHT22;22475;51.390;7.180;2022-12-17T08:04:17;6.90;85.40
36450;DHT22;22475;51.390;7.180;2022-12-17T08:07:01;6.90;85.30
36450;DHT22;22475;51.390;7.180;2022-12-17T08:09:45;6.90;85.30
36450;DHT22;22475;51.390;7.180;2022-12-17T08:12:29;6.90;85.30
36450;DHT22;22475;51.390;7.180;2022-12-17T08:15:14;6.90;85.30
36450;DHT22;22475;51.390;7.180;2022-12-17T08:18:01;6.90;85.30
36450;DHT22;22475;51.390;7.180;2022-12-17T08:20:46;6.90;85.30
36450;DHT22;22475;51.390;7.180;2022-12-17T08:23:30;6.90;85.20
36450;DHT22;22475;51.390;7.180;2022-12-17T08:26:14;6.90;85.20
36450;DHT22;22475;51.390;7.180;2022-12-17T08:28:58;6.90;85.20
36450;DHT22;22475;51.390;7.180;2022-12-17T08:31:43;6.90;85.10
36450;DHT22;22475;51.390;7.180;2022-12-17T08:34:28;6.90;85.10
36450;DHT22;22475;51.390;7.180;2022-12-17T08:37:12;6.90;85.10
36450;DHT22;22475;51.390;7.180;2022-12-17T08:39:56;6.80;85.00
36450;DHT22;22475;51.390;7.180;2022-12-17T08:42:40;6.80;85.00
36450;DHT22;22475;51.390;7.180;2022-12-17T08:45:24;6.80;85.00
36450;DHT22;22475;51.390;7.180;2022-12-17T08:48:10;6.80;85.00
36450;DHT22;22475;51.390;7.180;2022-12-17T08:50:54;6.80;85.00
36450;DHT22;22475;51.390;7.180;2022-12-17T08:53:40;6.80;85.00
36450;DHT22;22475;51.390;7.180;2022-12-17T08:56:25;6.90;85.00
36450;DHT22;22475;51.390;7.180;2022-12-17T08:59:09;6.80;85.00
36450;DHT22;22475;51.390;7.180;2022-12-17T09:01:56;6.80;85.00
36450;DHT22;22475;51.390;7.180;2022-12-17T09:04:42;6.80;84.90
36450;DHT22;22475;51.390;7.180;2022-12-17T09:07:26;6.80;84.90
36450;DHT22;22475;51.390;7.180;2022-12-17T09:10:10;6.80;84.90
36450;DHT22;22475;51.390;7.180;2022-12-17T09:12:54;6.80;84.80
36450;DHT22;22475;51.390;7.180;2022-12-17T09:15:38;6.80;84.80
36450;DHT22;22475;51.390;7.180;2022-12-17T09:18:22;6.80;84.80
36450;DHT22;22475;51.390;7.180;2022-12-17T09:21:05;6.80;84.80
36450;DHT22;22475;51.390;7.180;2022-12-17T09:23:49;6.80;84.70
36450;DHT22;22475;51.390;7.180;2022-12-17T09:26:34;6.80;84.70
36450;DHT22;22475;51.390;7.180;2022-12-17T09:29:18;6.80;84.70
36450;DHT22;22475;51.390;7.180;2022-12-17T09:32:02;6.80;84.70
36450;DHT22;22475;51.390;7.180;2022-12-17T09:34:47;6.80;84.60
36450;DHT22;22475;51.390;7.180;2022-12-17T09:37:32;6.80;84.60
36450;DHT22;22475;51.390;7.180;2022-12-17T09:40:21;6.80;84.60
36450;DHT22;22475;51.390;7.180;2022-12-17T09:43:16;6.80;84.70
36450;DHT22;22475;51.390;7.180;2022-12-17T09:46:05;6.80;84.80
36450;DHT22;22475;51.390;7.180;2022-12-17T09:48:59;6.80;84.70
36450;DHT22;22475;51.390;7.180;2022-12-17T09:51:44;6.80;84.70
36450;DHT22;22475;51.390;7.180;2022-12-17T09:54:33;6.80;84.70
36450;DHT22;22475;51.390;7.180;2022-12-17T09:57:23;6.80;84.60
36450;DHT22;22475;51.390;7.180;2022-12-17T10:00:13;6.80;84.60
36450;DHT22;22475;51.390;7.180;2022-12-17T10:02:58;6.80;84.60
36450;DHT22;22475;51.390;7.180;2022-12-17T10:05:43;6.80;84.60
36450;DHT22;22475;51.390;7.180;2022-12-17T10:08:28;6.80;84.50
36450;DHT22;22475;51.390;7.180;2022-12-17T10:11:19;6.80;84.50
36450;DHT22;22475;51.390;7.180;2022-12-17T10:14:03;6.80;84.50
36450;DHT22;22475;51.390;7.180;2022-12-17T10:16:49;6.80;84.50
36450;DHT22;22475;51.390;7.180;2022-12-17T10:19:39;6.90;84.50
36450;DHT22;22475;51.390;7.180;2022-12-17T10:22:24;6.90;84.40
36450;DHT22;22475;51.390;7.180;2022-12-17T10:25:17;6.90;84.50
36450;DHT22;22475;51.390;7.180;2022-12-17T10:28:05;6.90;84.40
36450;DHT22;22475;51.390;7.180;2022-12-17T10:30:49;6.90;84.50
36450;DHT22;22475;51.390;7.180;2022-12-17T10:33:37;6.90;84.50
36450;DHT22;22475;51.390;7.180;2022-12-17T10:36:23;6.90;85.30
36450;DHT22;22475;51.390;7.180;2022-12-17T10:39:15;6.90;84.50
36450;DHT22;22475;51.390;7.180;2022-12-17T10:42:02;6.90;84.40
36450;DHT22;22475;51.390;7.180;2022-12-17T10:44:48;6.90;84.40
36450;DHT22;22475;51.390;7.180;2022-12-17T10:47:33;6.90;84.30
36450;DHT22;22475;51.390;7.180;2022-12-17T10:50:19;6.90;84.30
36450;DHT22;22475;51.390;7.180;2022-12-17T10:53:15;6.90;84.30
36450;DHT22;22475;51.390;7.180;2022-12-17T10:56:01;6.90;84.20
36450;DHT22;22475;51.390;7.180;2022-12-17T10:58:46;6.90;84.20
36450;DHT22;22475;51.390;7.180;2022-12-17T11:01:33;6.90;84.20
36450;DHT22;22475;51.390;7.180;2022-12-17T11:04:23;6.90;84.20
36450;DHT22;22475;51.390;7.180;2022-12-17T11:07:09;6.90;84.10
36450;DHT22;22475;51.390;7.180;2022-12-17T11:09:57;6.90;84.10
36450;DHT22;22475;51.390;7.180;2022-12-17T11:12:49;7.00;84.20
36450;DHT22;22475;51.390;7.180;2022-12-17T11:15:38;6.90;84.10
36450;DHT22;22475;51.390;7.180;2022-12-17T11:18:28;7.00;84.10
36450;DHT22;22475;51.390;7.180;2022-12-17T11:21:18;7.00;84.10
36450;DHT22;22475;51.390;7.180;2022-12-17T11:24:03;7.00;84.10
36450;DHT22;22475;51.390;7.180;2022-12-17T11:26:51;7.00;84.00
36450;DHT22;22475;51.390;7.180;2022-12-17T11:29:36;7.00;84.00
36450;DHT22;22475;51.390;7.180;2022-12-17T11:35:38;7.00;84.00
36450;DHT22;22475;51.390;7.180;2022-12-17T11:38:33;7.00;84.10
36450;DHT22;22475;51.390;7.180;2022-12-17T11:41:27;7.10;84.10
36450;DHT22;22475;51.390;7.180;2022-12-17T11:44:24;7.10;84.10
36450;DHT22;22475;51.390;7.180;2022-12-17T11:47:25;7.10;84.10
36450;DHT22;22475;51.390;7.180;2022-12-17T11:50:19;7.10;84.10
36450;DHT22;22475;51.390;7.180;2022-12-17T11:53:24;7.10;84.10
36450;DHT22;22475;51.390;7.180;2022-12-17T11:56:18;7.10;84.00
36450;DHT22;22475;51.390;7.180;2022-12-17T11:59:13;7.10;84.00
36450;DHT22;22475;51.390;7.180;2022-12-17T12:02:05;7.10;84.00
36450;DHT22;22475;51.390;7.180;2022-12-17T12:05:13;7.10;84.00
36450;DHT22;22475;51.390;7.180;2022-12-17T12:08:08;7.20;84.10
36450;DHT22;22475;51.390;7.180;2022-12-17T12:11:04;7.20;84.10
36450;DHT22;22475;51.390;7.180;2022-12-17T12:13:55;7.20;84.10
36450;DHT22;22475;51.390;7.180;2022-12-17T12:16:49;7.20;84.10
36450;DHT22;22475;51.390;7.180;2022-12-17T12:19:42;7.20;84.10
36450;DHT22;22475;51.390;7.180;2022-12-17T12:22:46;7.20;84.10
36450;DHT22;22475;51.390;7.180;2022-12-17T12:25:38;7.20;84.10
36450;DHT22;22475;51.390;7.180;2022-12-17T12:28:43;7.20;84.00
36450;DHT22;22475;51.390;7.180;2022-12-17T12:31:37;7.20;84.10
36450;DHT22;22475;51.390;7.180;2022-12-17T12:34:26;7.20;84.10
36450;DHT22;22475;51.390;7.180;2022-12-17T12:37:17;7.20;84.10
36450;DHT22;22475;51.390;7.180;2022-12-17T12:40:10;7.20;84.10
36450;DHT22;22475;51.390;7.180;2022-12-17T12:42:59;7.30;84.10
36450;DHT22;22475;51.390;7.180;2022-12-17T12:45:58;7.20;84.10
36450;DHT22;22475;51.390;7.180;2022-12-17T12:48:49;7.20;84.10
36450;DHT22;22475;51.390;7.180;2022-12-17T12:51:35;7.20;84.00
36450;DHT22;22475;51.390;7.180;2022-12-17T12:54:24;7.20;84.10
36450;DHT22;22475;51.390;7.180;2022-12-17T12:57:30;7.20;84.10
36450;DHT22;22475;51.390;7.180;2022-12-17T13:00:28;7.20;84.10
36450;DHT22;22475;51.390;7.180;2022-12-17T13:03:23;7.20;84.10
36450;DHT22;22475;51.390;7.180;2022-12-17T13:06:08;7.30;84.10
36450;DHT22;22475;51.390;7.180;2022-12-17T13:08:35;7.30;84.10
36450;DHT22;22475;51.390;7.180;2022-12-17T13:11:11;7.30;84.10
36450;DHT22;22475;51.390;7.180;2022-12-17T13:13:40;7.30;84.20
36450;DHT22;22475;51.390;7.180;2022-12-17T13:16:27;7.30;84.10
36450;DHT22;22475;51.390;7.180;2022-12-17T13:19:03;7.30;84.20
36450;DHT22;22475;51.390;7.180;2022-12-17T13:21:30;7.30;84.20
36450;DHT22;22475;51.390;7.180;2022-12-17T13:23:57;7.30;84.20
36450;DHT22;22475;51.390;7.180;2022-12-17T13:26:30;7.30;84.20
36450;DHT22;22475;51.390;7.180;2022-12-17T13:29:20;7.30;84.20
36450;DHT22;22475;51.390;7.180;2022-12-17T13:32:02;7.30;84.20
36450;DHT22;22475;51.390;7.180;2022-12-17T13:34:42;7.30;84.30
36450;DHT22;22475;51.390;7.180;2022-12-17T13:37:21;7.30;84.30
36450;DHT22;22475;51.390;7.180;2022-12-17T13:39:57;7.30;84.20
36450;DHT22;22475;51.390;7.180;2022-12-17T13:42:27;7.30;84.20
36450;DHT22;22475;51.390;7.180;2022-12-17T13:44:55;7.40;84.30
36450;DHT22;22475;51.390;7.180;2022-12-17T13:47:24;7.30;84.30
36450;DHT22;22475;51.390;7.180;2022-12-17T13:49:54;7.30;84.20
36450;DHT22;22475;51.390;7.180;2022-12-17T13:52:23;7.30;84.30
36450;DHT22;22475;51.390;7.180;2022-12-17T13:54:50;7.30;84.30
36450;DHT22;22475;51.390;7.180;2022-12-17T13:57:19;7.40;84.30
36450;DHT22;22475;51.390;7.180;2022-12-17T13:59:50;7.30;84.30
36450;DHT22;22475;51.390;7.180;2022-12-17T14:02:23;7.40;84.30
36450;DHT22;22475;51.390;7.180;2022-12-17T14:04:52;7.40;84.30
36450;DHT22;22475;51.390;7.180;2022-12-17T14:07:19;7.40;84.30
36450;DHT22;22475;51.390;7.180;2022-12-17T14:09:47;7.30;84.30
36450;DHT22;22475;51.390;7.180;2022-12-17T14:12:15;7.30;84.30
36450;DHT22;22475;51.390;7.180;2022-12-17T14:14:51;7.30;84.30
36450;DHT22;22475;51.390;7.180;2022-12-17T14:17:21;7.40;84.50
36450;DHT22;22475;51.390;7.180;2022-12-17T14:19:55;7.40;84.40
36450;DHT22;22475;51.390;7.180;2022-12-17T14:22:32;7.40;84.40
36450;DHT22;22475;51.390;7.180;2022-12-17T14:25:01;7.40;84.40
36450;DHT22;22475;51.390;7.180;2022-12-17T14:27:31;7.40;84.40
36450;DHT22;22475;51.390;7.180;2022-12-17T14:29:58;7.40;84.40
36450;DHT22;22475;51.390;7.180;2022-12-17T14:32:31;7.40;84.40
36450;DHT22;22475;51.390;7.180;2022-12-17T14:34:59;7.40;84.30
36450;DHT22;22475;51.390;7.180;2022-12-17T14:37:27;7.40;84.30
36450;DHT22;22475;51.390;7.180;2022-12-17T14:39:59;7.40;84.40
36450;DHT22;22475;51.390;7.180;2022-12-17T14:42:27;7.40;84.40
36450;DHT22;22475;51.390;7.180;2022-12-17T14:44:58;7.40;84.50
36450;DHT22;22475;51.390;7.180;2022-12-17T14:47:27;7.30;84.40
36450;DHT22;22475;51.390;7.180;2022-12-17T14:50:02;7.30;84.40
36450;DHT22;22475;51.390;7.180;2022-12-17T14:52:37;7.30;84.40
36450;DHT22;22475;51.390;7.180;2022-12-17T14:55:23;7.30;84.40
36450;DHT22;22475;51.390;7.180;2022-12-17T14:57:51;7.30;84.30
36450;DHT22;22475;51.390;7.180;2022-12-17T15:00:19;7.30;84.40
36450;DHT22;22475;51.390;7.180;2022-12-17T15:02:49;7.30;84.40
36450;DHT22;22475;51.390;7.180;2022-12-17T15:05:18;7.30;84.30
36450;DHT22;22475;51.390;7.180;2022-12-17T15:07:45;7.30;84.40
36450;DHT22;22475;51.390;7.180;2022-12-17T15:10:13;7.20;84.20
36450;DHT22;22475;51.390;7.180;2022-12-17T15:12:43;7.20;84.20
36450;DHT22;22475;51.390;7.180;2022-12-17T15:15:11;7.20;84.10
36450;DHT22;22475;51.390;7.180;2022-12-17T15:17:38;7.20;84.90
36450;DHT22;22475;51.390;7.180;2022-12-17T15:20:06;7.20;84.10
36450;DHT22;22475;51.390;7.180;2022-12-17T15:22:38;7.20;84.10
36450;DHT22;22475;51.390;7.180;2022-12-17T15:25:06;7.20;84.10
36450;DHT22;22475;51.390;7.180;2022-12-17T15:27:32;7.20;84.00
36450;DHT22;22475;51.390;7.180;2022-12-17T15:29:59;7.10;83.90
36450;DHT22;22475;51.390;7.180;2022-12-17T15:32:26;7.10;83.90
36450;DHT22;22475;51.390;7.180;2022-12-17T15:34:53;7.10;83.90
36450;DHT22;22475;51.390;7.180;2022-12-17T15:37:20;7.10;83.90
36450;DHT22;22475;51.390;7.180;2022-12-17T15:39:57;7.10;83.80
36450;DHT22;22475;51.390;7.180;2022-12-17T15:42:25;7.10;83.80
36450;DHT22;22475;51.390;7.180;2022-12-17T15:45:10;7.10;83.70
36450;DHT22;22475;51.390;7.180;2022-12-17T15:47:36;7.00;83.70
36450;DHT22;22475;51.390;7.180;2022-12-17T15:50:04;7.00;83.60
36450;DHT22;22475;51.390;7.180;2022-12-17T15:52:31;7.00;83.70
36450;DHT22;22475;51.390;7.180;2022-12-17T15:54:59;7.00;83.70
36450;DHT22;22475;51.390;7.180;2022-12-17T15:57:26;7.00;83.70
36450;DHT22;22475;51.390;7.180;2022-12-17T15:59:52;7.00;83.60
36450;DHT22;22475;51.390;7.180;2022-12-17T16:02:19;7.00;83.70
36450;DHT22;22475;51.390;7.180;2022-12-17T16:04:46;7.00;83.70
36450;DHT22;22475;51.390;7.180;2022-12-17T16:07:13;7.00;83.70
36450;DHT22;22475;51.390;7.180;2022-12-17T16:09:40;7.00;83.70
36450;DHT22;22475;51.390;7.180;2022-12-17T16:12:08;7.00;83.60
36450;DHT22;22475;51.390;7.180;2022-12-17T16:14:35;6.90;83.50
36450;DHT22;22475;51.390;7.180;2022-12-17T16:17:02;7.00;83.50
36450;DHT22;22475;51.390;7.180;2022-12-17T16:19:29;6.90;83.40
36450;DHT22;22475;51.390;7.180;2022-12-17T16:21:55;6.90;83.40
36450;DHT22;22475;51.390;7.180;2022-12-17T16:24:22;6.90;83.30
36450;DHT22;22475;51.390;7.180;2022-12-17T16:26:49;6.90;83.40
36450;DHT22;22475;51.390;7.180;2022-12-17T16:29:17;6.90;83.20
36450;DHT22;22475;51.390;7.180;2022-12-17T16:31:44;6.90;83.20
36450;DHT22;22475;51.390;7.180;2022-12-17T16:34:12;6.90;83.20
36450;DHT22;22475;51.390;7.180;2022-12-17T16:36:38;6.90;83.20
36450;DHT22;22475;51.390;7.180;2022-12-17T16:39:05;6.80;83.10
36450;DHT22;22475;51.390;7.180;2022-12-17T16:41:32;6.80;83.10
36450;DHT22;22475;51.390;7.180;2022-12-17T16:43:59;6.80;83.10
36450;DHT22;22475;51.390;7.180;2022-12-17T16:46:28;6.80;83.20
36450;DHT22;22475;51.390;7.180;2022-12-17T16:48:57;6.80;83.90
36450;DHT22;22475;51.390;7.180;2022-12-17T16:51:26;6.80;83.10
36450;DHT22;22475;51.390;7.180;2022-12-17T16:53:53;6.80;83.10
36450;DHT22;22475;51.390;7.180;2022-12-17T16:56:22;6.80;83.10
36450;DHT22;22475;51.390;7.180;2022-12-17T16:58:49;6.80;83.10
36450;DHT22;22475;51.390;7.180;2022-12-17T17:01:18;6.80;83.10
36450;DHT22;22475;51.390;7.180;2022-12-17T17:03:46;6.70;83.00
36450;DHT22;22475;51.390;7.180;2022-12-17T17:06:13;6.70;82.90
36450;DHT22;22475;51.390;7.180;2022-12-17T17:08:39;6.70;82.90
36450;DHT22;22475;51.390;7.180;2022-12-17T17:11:12;6.70;82.90
36450;DHT22;22475;51.390;7.180;2022-12-17T17:13:39;6.70;82.80
36450;DHT22;22475;51.390;7.180;2022-12-17T17:16:07;6.70;82.80
36450;DHT22;22475;51.390;7.180;2022-12-17T17:18:35;6.70;82.80
36450;DHT22;22475;51.390;7.180;2022-12-17T17:21:22;6.70;82.80
36450;DHT22;22475;51.390;7.180;2022-12-17T17:23:51;6.70;82.80